createdAt,value
2019-01-29T00:01:21.963Z,9.43
2019-01-29T00:03:55.404Z,9.60
2019-01-29T00:06:31.517Z,10.53
2019-01-29T00:09:07.318Z,11.37
2019-01-29T00:11:43.518Z,11.97
2019-01-29T00:14:16.924Z,12.90
2019-01-29T00:16:50.437Z,11.43
2019-01-29T00:19:23.918Z,10.87
2019-01-29T00:21:57.406Z,11.67
2019-01-29T00:24:30.771Z,11.67
2019-01-29T00:27:04.369Z,11.03
2019-01-29T00:29:39.390Z,10.87
2019-01-29T00:32:13.439Z,10.93
2019-01-29T00:34:51.488Z,11.10
2019-01-29T00:37:25.018Z,9.60
2019-01-29T00:40:05.862Z,9.67
2019-01-29T00:42:40.497Z,6.83
2019-01-29T00:45:20.120Z,9.53
2019-01-29T00:47:53.725Z,8.63
2019-01-29T00:50:27.125Z,9.33
2019-01-29T00:53:00.718Z,7.53
2019-01-29T00:55:36.957Z,8.10
2019-01-29T00:58:10.303Z,8.17
2019-01-29T01:00:47.436Z,8.63
2019-01-29T01:03:20.425Z,7.10
2019-01-29T01:05:53.812Z,8.00
2019-01-29T01:08:28.897Z,8.07
2019-01-29T01:11:03.931Z,7.80
2019-01-29T01:13:37.335Z,7.83
2019-01-29T01:16:10.715Z,7.40
2019-01-29T01:18:44.078Z,8.43
2019-01-29T01:21:17.397Z,8.17
2019-01-29T01:23:50.773Z,8.40
2019-01-29T01:26:24.084Z,8.10
2019-01-29T01:28:57.431Z,8.23
2019-01-29T01:31:30.827Z,7.80
2019-01-29T01:34:04.312Z,8.33
2019-01-29T01:36:37.640Z,8.17
2019-01-29T01:39:12.590Z,7.73
2019-01-29T01:41:47.451Z,6.93
2019-01-29T01:44:20.802Z,7.90
2019-01-29T01:46:54.142Z,8.03
2019-01-29T01:49:27.492Z,7.43
2019-01-29T01:52:00.845Z,7.60
2019-01-29T01:54:36.627Z,7.30
2019-01-29T01:57:14.478Z,7.70
2019-01-29T01:59:47.819Z,7.80
2019-01-29T02:02:21.144Z,7.97
2019-01-29T02:05:03.332Z,7.37
2019-01-29T02:07:36.698Z,7.50
2019-01-29T02:10:31.958Z,7.07
2019-01-29T02:12:56.163Z,7.83
2019-01-29T02:15:34.346Z,7.37
2019-01-29T02:18:09.465Z,7.63
2019-01-29T02:20:42.891Z,7.37
2019-01-29T02:23:19.677Z,6.33
2019-01-29T02:25:52.988Z,7.93
2019-01-29T02:28:26.329Z,6.93
2019-01-29T02:31:06.996Z,6.70
2019-01-29T02:33:43.124Z,7.53
2019-01-29T02:36:23.005Z,7.93
2019-01-29T02:39:02.367Z,7.73
2019-01-29T02:41:35.871Z,7.07
2019-01-29T02:44:18.379Z,7.00
2019-01-29T02:46:55.006Z,8.40
2019-01-29T02:49:28.348Z,8.63
2019-01-29T02:52:01.698Z,8.90
2019-01-29T02:54:35.171Z,8.60
2019-01-29T02:57:10.133Z,8.73
2019-01-29T02:59:43.531Z,9.70
2019-01-29T03:02:16.858Z,9.30
2019-01-29T03:04:53.641Z,9.77
2019-01-29T03:07:27.277Z,10.97
2019-01-29T03:10:02.391Z,10.03
2019-01-29T03:12:41.524Z,9.90
2019-01-29T03:15:26.750Z,10.60
2019-01-29T03:18:00.407Z,9.27
2019-01-29T03:20:37.043Z,9.87
2019-01-29T03:23:10.397Z,10.30
2019-01-29T03:25:46.710Z,10.47
2019-01-29T03:28:20.028Z,9.70
2019-01-29T03:30:56.544Z,9.67
2019-01-29T03:33:31.426Z,10.10
2019-01-29T03:36:06.581Z,9.97
2019-01-29T03:38:39.977Z,9.00
2019-01-29T03:41:13.322Z,10.80
2019-01-29T03:43:46.691Z,11.27
2019-01-29T03:46:20.092Z,9.73
2019-01-29T03:48:54.996Z,10.47
2019-01-29T03:51:28.392Z,10.13
2019-01-29T03:54:03.444Z,10.60
2019-01-29T03:56:38.002Z,10.53
2019-01-29T03:59:20.079Z,11.10
2019-01-29T04:01:53.540Z,12.50
2019-01-29T04:04:26.884Z,12.07
2019-01-29T04:07:05.965Z,13.67
2019-01-29T04:09:43.216Z,13.00
2019-01-29T04:12:19.347Z,11.87
2019-01-29T04:14:55.795Z,12.00
2019-01-29T04:17:31.270Z,11.67
2019-01-29T04:20:06.659Z,13.53
2019-01-29T04:22:43.221Z,12.53
2019-01-29T04:25:19.614Z,12.37
2019-01-29T04:27:58.919Z,12.47
2019-01-29T04:30:33.805Z,14.47
2019-01-29T04:33:37.691Z,11.00
2019-01-29T04:36:13.531Z,11.63
2019-01-29T04:38:54.505Z,11.10
2019-01-29T04:41:41.576Z,11.53
2019-01-29T04:44:14.907Z,12.63
2019-01-29T04:46:52.527Z,11.93
2019-01-29T04:49:25.014Z,10.37
2019-01-29T04:51:59.656Z,11.93
2019-01-29T04:54:33.703Z,10.33
2019-01-29T04:57:11.400Z,10.33
2019-01-29T04:59:44.765Z,10.37
2019-01-29T05:02:18.142Z,10.27
2019-01-29T05:04:56.203Z,9.83
2019-01-29T05:07:31.664Z,9.03
2019-01-29T05:10:17.091Z,9.47
2019-01-29T05:12:50.551Z,10.43
2019-01-29T05:15:23.966Z,9.90
2019-01-29T05:17:57.366Z,10.33
2019-01-29T05:20:30.809Z,10.93
2019-01-29T05:23:04.221Z,10.03
2019-01-29T05:25:37.569Z,10.13
2019-01-29T05:28:10.888Z,9.43
2019-01-29T05:30:47.409Z,10.50
2019-01-29T05:33:20.855Z,9.83
2019-01-29T05:36:03.208Z,10.27
2019-01-29T05:38:36.548Z,9.87
2019-01-29T05:41:12.259Z,11.93
2019-01-29T05:43:47.928Z,11.70
2019-01-29T05:46:21.361Z,11.43
2019-01-29T05:48:58.571Z,12.90
2019-01-29T05:51:31.843Z,13.03
2019-01-29T05:54:15.870Z,12.97
2019-01-29T05:56:41.984Z,14.07
2019-01-29T05:59:15.583Z,13.90
2019-01-29T06:01:49.080Z,11.57
2019-01-29T06:04:25.081Z,13.83
2019-01-29T06:07:00.190Z,16.37
2019-01-29T06:09:33.664Z,15.50
2019-01-29T06:12:12.872Z,14.97
2019-01-29T06:14:50.711Z,15.53
2019-01-29T06:17:27.469Z,14.80
2019-01-29T06:20:03.831Z,15.83
2019-01-29T06:22:37.257Z,13.90
2019-01-29T06:25:13.240Z,14.67
2019-01-29T06:27:46.662Z,17.87
2019-01-29T06:30:25.898Z,13.63
2019-01-29T06:33:01.156Z,15.03
2019-01-29T06:35:34.493Z,12.87
2019-01-29T06:41:13.039Z,14.77
2019-01-29T06:43:46.369Z,15.93
2019-01-29T06:46:19.804Z,14.93
2019-01-29T06:48:56.874Z,15.97
2019-01-29T06:51:29.899Z,16.63
2019-01-29T06:54:06.140Z,13.03
2019-01-29T06:56:42.586Z,15.10
2019-01-29T06:59:20.464Z,14.87
2019-01-29T07:01:52.765Z,15.17
2019-01-29T07:04:26.208Z,14.07
2019-01-29T07:06:59.719Z,14.87
2019-01-29T07:09:43.490Z,13.77
2019-01-29T07:12:19.800Z,13.73
2019-01-29T07:14:54.654Z,12.90
2019-01-29T07:17:29.645Z,12.47
2019-01-29T07:20:05.825Z,11.97
2019-01-29T07:22:42.398Z,11.00
2019-01-29T07:25:17.537Z,13.10
2019-01-29T07:27:54.725Z,13.03
2019-01-29T07:30:28.153Z,12.47
2019-01-29T07:33:04.503Z,11.53
2019-01-29T07:35:37.874Z,11.70
2019-01-29T07:38:15.726Z,11.23
2019-01-29T07:40:52.282Z,12.03
2019-01-29T07:43:30.425Z,11.20
2019-01-29T07:46:07.067Z,11.47
2019-01-29T07:48:42.235Z,10.83
2019-01-29T07:51:17.156Z,13.47
2019-01-29T07:53:52.406Z,13.30
2019-01-29T07:56:25.788Z,15.50
2019-01-29T07:58:59.157Z,12.73
2019-01-29T08:01:32.473Z,15.20
2019-01-29T08:04:05.918Z,14.70
2019-01-29T08:06:39.313Z,17.60
2019-01-29T08:09:12.818Z,20.77
2019-01-29T08:11:46.283Z,13.77
2019-01-29T08:14:19.705Z,12.40
2019-01-29T08:16:53.026Z,12.03
2019-01-29T08:19:26.388Z,11.43
2019-01-29T08:21:59.742Z,11.70
2019-01-29T08:24:33.139Z,15.20
2019-01-29T08:27:06.542Z,10.90
2019-01-29T08:29:44.497Z,13.07
2019-01-29T08:32:17.851Z,13.10
2019-01-29T08:34:51.198Z,12.20
2019-01-29T08:37:26.418Z,11.77
2019-01-29T08:40:04.377Z,12.13
2019-01-29T08:42:37.801Z,12.83
2019-01-29T08:45:16.658Z,12.57
2019-01-29T08:47:50.004Z,15.37
2019-01-29T08:50:29.934Z,12.70
2019-01-29T08:53:08.245Z,11.70
2019-01-29T08:55:42.621Z,22.83
2019-01-29T08:58:16.111Z,12.20
2019-01-29T09:00:49.425Z,12.93
2019-01-29T09:03:24.319Z,12.53
2019-01-29T09:05:57.653Z,11.90
2019-01-29T09:08:32.718Z,11.53
2019-01-29T09:11:06.186Z,12.27
2019-01-29T09:13:40.552Z,14.27
2019-01-29T09:16:15.746Z,15.27
2019-01-29T09:21:41.613Z,17.07
2019-01-29T09:24:21.018Z,14.60
2019-01-29T09:26:59.212Z,14.10
2019-01-29T09:29:34.108Z,13.30
2019-01-29T09:32:13.728Z,14.63
2019-01-29T09:34:51.385Z,13.00
2019-01-29T09:37:24.713Z,13.10
2019-01-29T09:39:58.141Z,12.23
2019-01-29T09:42:31.467Z,13.67
2019-01-29T09:45:11.692Z,14.37
2019-01-29T09:47:49.239Z,12.93
2019-01-29T09:50:27.099Z,15.40
2019-01-29T09:53:03.370Z,17.80
2019-01-29T09:55:45.817Z,13.87
2019-01-29T09:58:19.232Z,13.73
2019-01-29T10:00:54.278Z,16.80
2019-01-29T10:03:29.350Z,14.90
2019-01-29T10:06:04.058Z,14.43
2019-01-29T10:08:37.374Z,14.10
2019-01-29T10:11:10.790Z,14.33
2019-01-29T10:13:46.234Z,13.87
2019-01-29T10:16:21.145Z,16.03
2019-01-29T10:18:57.241Z,14.77
2019-01-29T10:21:30.632Z,15.33
2019-01-29T10:24:06.925Z,16.83
2019-01-29T10:26:42.071Z,15.03
2019-01-29T10:29:21.157Z,17.83
2019-01-29T10:31:57.324Z,17.60
2019-01-29T10:34:30.739Z,16.50
2019-01-29T10:37:04.206Z,14.77
2019-01-29T10:39:44.747Z,16.87
2019-01-29T10:42:19.700Z,23.50
2019-01-29T10:44:57.017Z,19.93
2019-01-29T10:47:31.955Z,16.07
2019-01-29T10:50:08.480Z,16.03
2019-01-29T10:52:44.797Z,15.17
2019-01-29T10:55:19.598Z,19.30
2019-01-29T10:57:53.353Z,14.77
2019-01-29T11:00:29.787Z,14.60
2019-01-29T11:03:03.181Z,18.13
2019-01-29T11:05:36.661Z,18.47
2019-01-29T11:08:10.223Z,16.57
2019-01-29T11:10:43.635Z,13.60
2019-01-29T11:13:17.029Z,13.23
2019-01-29T11:15:52.104Z,9.63
2019-01-29T11:18:27.280Z,10.93
2019-01-29T11:21:03.816Z,10.10
2019-01-29T11:23:37.139Z,11.37
2019-01-29T11:26:10.652Z,12.93
2019-01-29T11:28:44.073Z,10.73
2019-01-29T11:31:17.461Z,10.53
2019-01-29T11:33:50.845Z,11.47
2019-01-29T11:36:24.167Z,11.20
2019-01-29T11:38:59.854Z,10.77
2019-01-29T11:41:35.009Z,10.17
2019-01-29T11:44:08.530Z,9.80
2019-01-29T11:46:41.983Z,9.73
2019-01-29T11:49:16.857Z,10.00
2019-01-29T11:51:51.899Z,10.03
2019-01-29T11:54:25.249Z,10.10
2019-01-29T11:57:00.202Z,8.53
2019-01-29T11:59:36.939Z,8.87
2019-01-29T12:02:11.884Z,8.03
2019-01-29T12:04:45.228Z,7.97
2019-01-29T12:07:19.559Z,7.73
2019-01-29T12:09:56.387Z,9.73
2019-01-29T12:12:28.747Z,7.07
2019-01-29T12:15:02.247Z,6.93
2019-01-29T12:17:35.580Z,8.53
2019-01-29T12:20:12.106Z,7.73
2019-01-29T12:22:45.569Z,7.47
2019-01-29T12:25:27.532Z,6.77
2019-01-29T12:28:00.920Z,7.93
2019-01-29T12:30:36.361Z,7.33
2019-01-29T12:33:12.525Z,7.77
2019-01-29T12:35:53.767Z,9.07
2019-01-29T12:38:27.088Z,7.33
2019-01-29T12:41:03.689Z,8.63
2019-01-29T12:43:37.063Z,8.07
2019-01-29T12:46:10.501Z,7.30
2019-01-29T12:48:43.819Z,7.63
2019-01-29T12:51:18.866Z,8.50
2019-01-29T12:53:52.251Z,7.77
2019-01-29T12:56:27.655Z,8.17
2019-01-29T12:59:01.064Z,8.00
2019-01-29T13:01:34.407Z,8.30
2019-01-29T13:04:07.723Z,7.03
2019-01-29T13:06:41.070Z,8.00
2019-01-29T13:09:14.534Z,8.83
2019-01-29T13:11:47.883Z,9.33
2019-01-29T13:14:21.240Z,8.80
2019-01-29T13:16:54.566Z,7.70
2019-01-29T13:19:27.988Z,8.43
2019-01-29T13:22:01.319Z,8.73
2019-01-29T13:24:34.672Z,7.90
2019-01-29T13:27:08.069Z,8.67
2019-01-29T13:29:41.474Z,8.87
2019-01-29T13:32:14.973Z,9.43
2019-01-29T13:34:48.322Z,8.83
2019-01-29T13:37:21.739Z,8.80
2019-01-29T13:39:55.153Z,8.27
2019-01-29T13:42:28.549Z,8.77
2019-01-29T13:45:01.886Z,9.93
2019-01-29T13:47:35.278Z,9.77
2019-01-29T14:00:35.131Z,10.10
2019-01-29T14:03:14.057Z,10.67
2019-01-29T14:05:47.488Z,10.77
2019-01-29T14:08:20.813Z,11.13
2019-01-29T14:10:54.162Z,10.23
2019-01-29T14:13:27.565Z,13.13
2019-01-29T14:16:02.372Z,10.10
2019-01-29T14:18:35.687Z,10.53
2019-01-29T14:21:09.042Z,12.10
2019-01-29T14:23:42.763Z,10.93
2019-01-29T14:29:19.153Z,12.07
2019-01-29T14:31:52.527Z,10.70
2019-01-29T14:34:28.544Z,11.60
2019-01-29T14:37:01.942Z,11.40
2019-01-29T14:39:41.155Z,12.37
2019-01-29T14:42:17.472Z,12.33
2019-01-29T14:44:53.589Z,14.60
2019-01-29T14:47:32.621Z,12.03
2019-01-29T14:50:09.142Z,14.17
2019-01-29T14:52:47.111Z,11.47
2019-01-29T14:55:22.979Z,11.70
2019-01-29T14:57:56.300Z,11.40
2019-01-29T15:00:37.508Z,12.33
2019-01-29T15:03:11.404Z,14.43
2019-01-29T15:05:46.679Z,12.00
2019-01-29T15:08:20.327Z,15.37
2019-01-29T15:10:53.754Z,15.20
2019-01-29T15:13:32.818Z,15.53
2019-01-29T15:16:08.365Z,11.93
2019-01-29T15:18:54.118Z,11.63
2019-01-29T15:21:37.372Z,11.73
2019-01-29T15:24:02.758Z,12.53
2019-01-29T15:26:36.114Z,11.13
2019-01-29T15:29:09.435Z,12.80
2019-01-29T15:31:42.856Z,12.17
2019-01-29T15:34:16.498Z,12.10
2019-01-29T15:36:49.958Z,12.80
2019-01-29T15:39:23.277Z,10.47
2019-01-29T15:41:56.649Z,13.23
2019-01-29T15:44:29.945Z,11.70
2019-01-29T15:47:03.289Z,12.27
2019-01-29T15:49:36.632Z,11.23
2019-01-29T15:52:10.054Z,9.77
2019-01-29T15:54:43.403Z,10.83
2019-01-29T15:57:16.753Z,10.93
2019-01-29T15:59:50.079Z,9.83
2019-01-29T16:02:23.448Z,15.47
2019-01-29T16:04:56.863Z,15.37
2019-01-29T16:07:30.229Z,12.37
2019-01-29T16:10:09.390Z,12.83
2019-01-29T16:12:42.750Z,14.67
2019-01-29T16:15:19.307Z,12.80
2019-01-29T16:17:52.822Z,12.40
2019-01-29T16:20:27.796Z,11.00
2019-01-29T16:23:01.590Z,10.20
2019-01-29T16:25:38.304Z,12.30
2019-01-29T16:28:11.667Z,11.40
2019-01-29T16:30:45.045Z,11.37
2019-01-29T16:33:18.462Z,11.33
2019-01-29T16:35:51.787Z,11.57
2019-01-29T16:38:25.240Z,10.20
2019-01-29T16:41:00.522Z,14.77
2019-01-29T16:43:33.702Z,14.03
2019-01-29T16:46:07.091Z,10.73
2019-01-29T16:48:40.444Z,12.53
2019-01-29T16:51:13.785Z,11.63
2019-01-29T16:53:47.212Z,11.53
2019-01-29T16:56:20.594Z,11.93
2019-01-29T16:58:54.010Z,11.40
2019-01-29T17:01:27.408Z,11.60
2019-01-29T17:04:00.978Z,10.53
2019-01-29T17:06:34.294Z,12.43
2019-01-29T17:09:11.693Z,11.83
2019-01-29T17:11:44.427Z,11.90
2019-01-29T17:14:17.778Z,13.37
2019-01-29T17:16:51.105Z,12.33
2019-01-29T17:19:24.523Z,13.20
2019-01-29T17:21:57.850Z,12.03
2019-01-29T17:24:31.209Z,14.33
2019-01-29T17:27:04.768Z,14.43
2019-01-29T17:29:38.118Z,14.40
2019-01-29T17:32:11.510Z,15.70
2019-01-29T17:34:45.758Z,12.27
2019-01-29T17:37:19.111Z,12.13
2019-01-29T17:39:52.432Z,12.13
2019-01-29T17:42:32.291Z,15.57
2019-01-29T17:45:08.782Z,11.70
2019-01-29T17:47:43.682Z,12.90
2019-01-29T17:50:43.321Z,15.17
2019-01-29T17:53:16.742Z,17.90
2019-01-29T17:55:53.165Z,13.50
2019-01-29T17:58:30.398Z,15.47
2019-01-29T18:08:06.341Z,15.97
2019-01-29T18:10:39.803Z,16.50
2019-01-29T18:13:13.228Z,16.97
2019-01-29T18:15:46.622Z,17.80
2019-01-29T18:18:23.436Z,18.10
2019-01-29T18:21:07.140Z,18.60
2019-01-29T18:23:49.240Z,17.53
2019-01-29T18:26:22.610Z,18.17
2019-01-29T18:28:57.124Z,22.60
2019-01-29T18:31:30.481Z,20.70
2019-01-29T18:44:21.405Z,19.10
2019-01-29T18:47:03.064Z,21.50
2019-01-29T18:49:41.180Z,20.10
2019-01-29T18:52:24.660Z,20.27
2019-01-29T18:54:59.315Z,20.57
2019-01-29T18:57:42.804Z,20.73
2019-01-29T19:00:19.436Z,22.80
2019-01-29T19:02:54.680Z,21.17
2019-01-29T19:05:32.310Z,21.17
2019-01-29T19:08:07.395Z,23.63
2019-01-29T19:10:40.839Z,20.20
2019-01-29T19:13:16.307Z,21.23
2019-01-29T19:15:49.771Z,20.93
2019-01-29T19:18:23.198Z,20.80
2019-01-29T19:20:56.700Z,24.70
2019-01-29T19:23:33.218Z,49.33
2019-01-29T19:26:07.763Z,51.77
2019-01-29T19:28:41.221Z,30.23
2019-01-29T19:31:15.920Z,27.07
2019-01-29T19:33:50.983Z,22.27
2019-01-29T19:36:24.726Z,23.03
2019-01-29T19:38:58.888Z,21.30
2019-01-29T19:41:33.954Z,20.63
2019-01-29T19:44:09.176Z,22.13
2019-01-29T19:46:42.657Z,22.83
2019-01-29T19:49:16.271Z,23.33
2019-01-29T19:51:51.233Z,23.63
2019-01-29T19:54:24.623Z,23.67
2019-01-29T19:56:58.070Z,22.43
2019-01-29T19:59:31.495Z,22.90
2019-01-29T20:02:04.902Z,21.27
2019-01-29T20:04:39.890Z,23.43
2019-01-29T20:07:13.220Z,21.70
2019-01-29T20:09:46.641Z,25.93
2019-01-29T20:12:20.306Z,18.70
2019-01-29T20:14:54.562Z,19.07
2019-01-29T20:17:28.047Z,22.80
2019-01-29T20:20:01.437Z,22.00
2019-01-29T20:22:36.102Z,20.00
2019-01-29T20:25:11.610Z,23.13
2019-01-29T20:27:44.969Z,24.80
2019-01-29T20:30:21.250Z,22.27
2019-01-29T20:32:54.570Z,24.20
2019-01-29T20:35:28.426Z,23.27
2019-01-29T20:38:01.849Z,21.67
2019-01-29T20:40:35.350Z,21.10
2019-01-29T20:43:09.029Z,23.00
2019-01-29T20:45:42.522Z,22.37
2019-01-29T20:48:15.902Z,21.00
2019-01-29T20:50:50.892Z,21.00
2019-01-29T20:53:27.422Z,19.83
2019-01-29T20:56:02.118Z,19.57
2019-01-29T20:58:35.504Z,21.80
2019-01-29T21:01:15.425Z,19.37
2019-01-29T21:03:48.768Z,19.73
2019-01-29T21:06:22.193Z,22.53
2019-01-29T21:08:55.599Z,22.47
2019-01-29T21:11:30.581Z,21.87
2019-01-29T21:14:04.120Z,19.43
2019-01-29T21:16:39.131Z,17.53
2019-01-29T21:19:12.456Z,20.07
2019-01-29T21:21:48.358Z,23.90
2019-01-29T21:24:21.754Z,20.70
2019-01-29T21:26:55.103Z,18.97
2019-01-29T21:29:32.168Z,18.63
2019-01-29T21:32:08.518Z,20.10
2019-01-29T21:34:41.911Z,20.97
2019-01-29T21:37:15.271Z,20.33
2019-01-29T21:39:48.663Z,22.67
2019-01-29T21:42:23.656Z,21.37
2019-01-29T21:44:56.990Z,21.03
2019-01-29T21:47:30.338Z,21.60
2019-01-29T21:50:11.628Z,19.17
2019-01-29T21:52:43.628Z,19.93
2019-01-29T21:58:01.443Z,19.83
2019-01-29T22:00:40.344Z,19.80
2019-01-29T22:03:16.871Z,17.97
2019-01-29T22:05:52.069Z,19.07
2019-01-29T22:08:28.646Z,19.63
2019-01-29T22:11:02.008Z,18.00
2019-01-29T22:13:35.345Z,17.50
2019-01-29T22:16:10.337Z,18.00
2019-01-29T22:18:43.689Z,17.53
2019-01-29T22:21:17.076Z,16.87
2019-01-29T22:23:50.403Z,19.13
2019-01-29T22:26:23.750Z,18.23
2019-01-29T22:29:01.550Z,17.60
2019-01-29T22:31:34.982Z,16.87
2019-01-29T22:34:08.376Z,16.03
2019-01-29T22:36:46.985Z,20.97
2019-01-29T22:39:19.790Z,16.73
2019-01-29T22:41:57.321Z,20.87
2019-01-29T22:44:30.642Z,17.33
2019-01-29T22:47:06.881Z,17.20
2019-01-29T22:49:47.631Z,17.50
2019-01-29T22:52:21.004Z,18.00
2019-01-29T22:54:59.867Z,16.77
2019-01-29T22:57:33.282Z,17.97
2019-01-29T23:00:14.243Z,19.23
2019-01-29T23:02:47.694Z,16.67
2019-01-29T23:05:26.420Z,17.00
2019-01-29T23:07:59.771Z,16.93
2019-01-29T23:10:33.095Z,17.27
2019-01-29T23:13:09.501Z,17.80
2019-01-29T23:15:42.904Z,17.23
2019-01-29T23:18:19.406Z,18.93
2019-01-29T23:20:52.731Z,17.50
2019-01-29T23:23:26.219Z,19.83
2019-01-29T23:26:02.530Z,19.03
2019-01-29T23:28:35.888Z,18.40
2019-01-29T23:31:09.463Z,17.00
2019-01-29T23:33:42.846Z,16.47
2019-01-29T23:36:17.864Z,18.50
2019-01-29T23:38:51.188Z,17.97
2019-01-29T23:41:26.099Z,16.60
2019-01-29T23:44:07.932Z,17.87
2019-01-29T23:46:41.474Z,17.50
2019-01-29T23:49:14.856Z,16.80
2019-01-29T23:51:51.300Z,15.40
2019-01-29T23:54:26.285Z,17.07
2019-01-29T23:56:59.650Z,16.53
2019-01-29T23:59:34.519Z,17.77
